sensor_id;sensor_type;location;lat;lon;timestamp;temperature;humidity
41592;DHT22;28026;48.562;14.440;2024-01-10T00:00:23;-8.50;99.90
41592;DHT22;28026;48.562;14.440;2024-01-10T00:02:54;-8.70;99.90
41592;DHT22;28026;48.562;14.440;2024-01-10T00:05:25;-8.80;99.90
41592;DHT22;28026;48.562;14.440;2024-01-10T00:07:56;-8.70;99.90
41592;DHT22;28026;48.562;14.440;2024-01-10T00:10:27;-8.60;99.90
41592;DHT22;28026;48.562;14.440;2024-01-10T00:12:58;-8.60;99.90
41592;DHT22;28026;48.562;14.440;2024-01-10T00:15:29;-8.60;99.90
41592;DHT22;28026;48.562;14.440;2024-01-10T00:18:00;-8.50;99.90
41592;DHT22;28026;48.562;14.440;2024-01-10T00:20:31;-8.50;99.90
41592;DHT22;28026;48.562;14.440;2024-01-10T00:23:02;-8.60;99.90
41592;DHT22;28026;48.562;14.440;2024-01-10T00:25:33;-8.60;99.90
41592;DHT22;28026;48.562;14.440;2024-01-10T00:28:04;-8.70;99.90
41592;DHT22;28026;48.562;14.440;2024-01-10T00:30:35;-8.70;99.90
41592;DHT22;28026;48.562;14.440;2024-01-10T00:33:06;-8.60;99.90
41592;DHT22;28026;48.562;14.440;2024-01-10T00:35:37;-8.60;99.90
41592;DHT22;28026;48.562;14.440;2024-01-10T00:38:08;-8.50;99.90
41592;DHT22;28026;48.562;14.440;2024-01-10T00:40:40;-8.40;99.90
41592;DHT22;28026;48.562;14.440;2024-01-10T00:43:11;-8.40;99.90
41592;DHT22;28026;48.562;14.440;2024-01-10T00:45:42;-8.30;99.90
41592;DHT22;28026;48.562;14.440;2024-01-10T00:48:12;-8.30;99.90
41592;DHT22;28026;48.562;14.440;2024-01-10T00:50:43;-8.20;99.90
41592;DHT22;28026;48.562;14.440;2024-01-10T00:53:16;-8.10;99.90
41592;DHT22;28026;48.562;14.440;2024-01-10T00:55:48;-8.00;99.90
41592;DHT22;28026;48.562;14.440;2024-01-10T00:58:19;-8.20;99.90
41592;DHT22;28026;48.562;14.440;2024-01-10T01:00:49;-8.50;99.90
41592;DHT22;28026;48.562;14.440;2024-01-10T01:03:20;-8.50;99.90
41592;DHT22;28026;48.562;14.440;2024-01-10T01:05:51;-8.40;99.90
41592;DHT22;28026;48.562;14.440;2024-01-10T01:08:22;-8.30;99.90
41592;DHT22;28026;48.562;14.440;2024-01-10T01:10:53;-8.30;99.90
41592;DHT22;28026;48.562;14.440;2024-01-10T01:13:24;-8.40;99.90
41592;DHT22;28026;48.562;14.440;2024-01-10T01:15:54;-8.30;99.90
41592;DHT22;28026;48.562;14.440;2024-01-10T01:18:25;-8.30;99.90
41592;DHT22;28026;48.562;14.440;2024-01-10T01:20:56;-8.50;99.90
41592;DHT22;28026;48.562;14.440;2024-01-10T01:23:27;-8.60;99.90
41592;DHT22;28026;48.562;14.440;2024-01-10T01:25:59;-8.50;99.90
41592;DHT22;28026;48.562;14.440;2024-01-10T01:28:30;-8.30;99.90
41592;DHT22;28026;48.562;14.440;2024-01-10T01:31:01;-8.50;99.90
41592;DHT22;28026;48.562;14.440;2024-01-10T01:33:31;-8.70;99.90
41592;DHT22;28026;48.562;14.440;2024-01-10T01:36:02;-8.60;99.90
41592;DHT22;28026;48.562;14.440;2024-01-10T01:38:34;-8.50;99.90
41592;DHT22;28026;48.562;14.440;2024-01-10T01:41:06;-8.80;99.90
41592;DHT22;28026;48.562;14.440;2024-01-10T01:43:37;-8.90;99.90
41592;DHT22;28026;48.562;14.440;2024-01-10T01:46:07;-9.00;99.90
41592;DHT22;28026;48.562;14.440;2024-01-10T01:48:39;-9.00;99.90
41592;DHT22;28026;48.562;14.440;2024-01-10T01:51:12;-9.00;99.90
41592;DHT22;28026;48.562;14.440;2024-01-10T01:53:46;-9.10;99.90
41592;DHT22;28026;48.562;14.440;2024-01-10T01:56:19;-9.20;99.90
41592;DHT22;28026;48.562;14.440;2024-01-10T01:58:52;-9.20;99.90
41592;DHT22;28026;48.562;14.440;2024-01-10T02:01:25;-9.10;99.90
41592;DHT22;28026;48.562;14.440;2024-01-10T02:03:56;-9.20;99.90
41592;DHT22;28026;48.562;14.440;2024-01-10T02:06:27;-9.20;99.90
41592;DHT22;28026;48.562;14.440;2024-01-10T02:08:59;-9.10;99.90
41592;DHT22;28026;48.562;14.440;2024-01-10T02:11:30;-9.20;99.90
41592;DHT22;28026;48.562;14.440;2024-01-10T02:14:02;-9.20;99.90
41592;DHT22;28026;48.562;14.440;2024-01-10T02:16:33;-9.20;99.90
41592;DHT22;28026;48.562;14.440;2024-01-10T02:19:21;-9.30;99.90
41592;DHT22;28026;48.562;14.440;2024-01-10T02:21:54;-9.30;99.90
41592;DHT22;28026;48.562;14.440;2024-01-10T02:24:26;-9.30;99.90
41592;DHT22;28026;48.562;14.440;2024-01-10T02:26:57;-9.00;99.90
41592;DHT22;28026;48.562;14.440;2024-01-10T02:29:28;-8.90;99.90
41592;DHT22;28026;48.562;14.440;2024-01-10T02:32:01;-8.90;99.90
41592;DHT22;28026;48.562;14.440;2024-01-10T02:34:32;-9.00;99.90
41592;DHT22;28026;48.562;14.440;2024-01-10T02:37:03;-9.10;99.90
41592;DHT22;28026;48.562;14.440;2024-01-10T02:39:34;-9.20;99.90
41592;DHT22;28026;48.562;14.440;2024-01-10T02:42:05;-9.30;99.90
41592;DHT22;28026;48.562;14.440;2024-01-10T02:44:36;-9.40;99.90
41592;DHT22;28026;48.562;14.440;2024-01-10T02:47:07;-9.20;99.90
41592;DHT22;28026;48.562;14.440;2024-01-10T02:49:39;-8.90;99.90
41592;DHT22;28026;48.562;14.440;2024-01-10T02:52:09;-9.10;99.90
41592;DHT22;28026;48.562;14.440;2024-01-10T02:54:40;-8.70;99.90
41592;DHT22;28026;48.562;14.440;2024-01-10T02:57:12;-8.40;99.90
41592;DHT22;28026;48.562;14.440;2024-01-10T02:59:43;-8.50;99.90
41592;DHT22;28026;48.562;14.440;2024-01-10T03:02:14;-9.00;99.90
41592;DHT22;28026;48.562;14.440;2024-01-10T03:04:45;-9.00;99.90
41592;DHT22;28026;48.562;14.440;2024-01-10T03:07:16;-8.90;99.90
41592;DHT22;28026;48.562;14.440;2024-01-10T03:09:47;-9.10;99.90
41592;DHT22;28026;48.562;14.440;2024-01-10T03:12:18;-9.20;99.90
41592;DHT22;28026;48.562;14.440;2024-01-10T03:14:49;-9.10;99.90
41592;DHT22;28026;48.562;14.440;2024-01-10T03:17:20;-9.20;99.90
41592;DHT22;28026;48.562;14.440;2024-01-10T03:19:51;-9.10;99.90
41592;DHT22;28026;48.562;14.440;2024-01-10T03:22:21;-8.90;99.90
41592;DHT22;28026;48.562;14.440;2024-01-10T03:24:52;-8.80;99.90
41592;DHT22;28026;48.562;14.440;2024-01-10T03:27:23;-8.70;99.90
41592;DHT22;28026;48.562;14.440;2024-01-10T03:29:54;-8.70;99.90
41592;DHT22;28026;48.562;14.440;2024-01-10T03:32:25;-8.70;99.90
41592;DHT22;28026;48.562;14.440;2024-01-10T03:34:56;-8.70;99.90
41592;DHT22;28026;48.562;14.440;2024-01-10T03:37:26;-8.90;99.90
41592;DHT22;28026;48.562;14.440;2024-01-10T03:39:57;-8.90;99.90
41592;DHT22;28026;48.562;14.440;2024-01-10T03:42:29;-9.00;99.90
41592;DHT22;28026;48.562;14.440;2024-01-10T03:45:00;-9.00;99.90
41592;DHT22;28026;48.562;14.440;2024-01-10T03:47:32;-8.90;99.90
41592;DHT22;28026;48.562;14.440;2024-01-10T03:50:03;-9.00;99.90
41592;DHT22;28026;48.562;14.440;2024-01-10T03:52:34;-9.10;99.90
41592;DHT22;28026;48.562;14.440;2024-01-10T03:55:05;-9.10;99.90
41592;DHT22;28026;48.562;14.440;2024-01-10T03:57:36;-9.10;99.90
41592;DHT22;28026;48.562;14.440;2024-01-10T04:00:07;-9.10;99.90
41592;DHT22;28026;48.562;14.440;2024-01-10T04:02:39;-9.10;99.90
41592;DHT22;28026;48.562;14.440;2024-01-10T04:05:10;-9.20;99.90
41592;DHT22;28026;48.562;14.440;2024-01-10T04:07:43;-9.20;99.90
41592;DHT22;28026;48.562;14.440;2024-01-10T04:10:14;-9.20;99.90
41592;DHT22;28026;48.562;14.440;2024-01-10T04:12:44;-9.20;99.90
41592;DHT22;28026;48.562;14.440;2024-01-10T04:15:16;-9.20;99.90
41592;DHT22;28026;48.562;14.440;2024-01-10T04:17:48;-9.20;99.90
41592;DHT22;28026;48.562;14.440;2024-01-10T04:20:19;-9.30;99.90
41592;DHT22;28026;48.562;14.440;2024-01-10T04:22:50;-9.40;99.90
41592;DHT22;28026;48.562;14.440;2024-01-10T04:25:21;-9.40;99.90
41592;DHT22;28026;48.562;14.440;2024-01-10T04:27:52;-9.40;99.90
41592;DHT22;28026;48.562;14.440;2024-01-10T04:30:23;-9.50;99.90
41592;DHT22;28026;48.562;14.440;2024-01-10T04:32:54;-9.50;99.90
41592;DHT22;28026;48.562;14.440;2024-01-10T04:35:25;-9.40;99.90
41592;DHT22;28026;48.562;14.440;2024-01-10T04:37:56;-9.40;99.90
41592;DHT22;28026;48.562;14.440;2024-01-10T04:40:26;-9.40;99.90
41592;DHT22;28026;48.562;14.440;2024-01-10T04:42:57;-9.40;99.90
41592;DHT22;28026;48.562;14.440;2024-01-10T04:45:28;-9.40;99.90
41592;DHT22;28026;48.562;14.440;2024-01-10T04:47:59;-9.30;99.90
41592;DHT22;28026;48.562;14.440;2024-01-10T04:50:30;-9.40;99.90
41592;DHT22;28026;48.562;14.440;2024-01-10T04:53:01;-9.40;99.90
41592;DHT22;28026;48.562;14.440;2024-01-10T04:55:31;-9.40;99.90
41592;DHT22;28026;48.562;14.440;2024-01-10T04:58:02;-9.40;99.90
41592;DHT22;28026;48.562;14.440;2024-01-10T05:00:33;-9.40;99.90
41592;DHT22;28026;48.562;14.440;2024-01-10T05:03:04;-9.50;99.90
41592;DHT22;28026;48.562;14.440;2024-01-10T05:05:35;-9.50;99.90
41592;DHT22;28026;48.562;14.440;2024-01-10T05:08:06;-9.50;99.90
41592;DHT22;28026;48.562;14.440;2024-01-10T05:10:37;-9.50;99.90
41592;DHT22;28026;48.562;14.440;2024-01-10T05:13:08;-9.50;99.90
41592;DHT22;28026;48.562;14.440;2024-01-10T05:15:39;-9.60;99.90
41592;DHT22;28026;48.562;14.440;2024-01-10T05:18:10;-9.70;99.90
41592;DHT22;28026;48.562;14.440;2024-01-10T05:20:41;-9.70;99.90
41592;DHT22;28026;48.562;14.440;2024-01-10T05:23:11;-9.80;99.90
41592;DHT22;28026;48.562;14.440;2024-01-10T05:25:43;-9.70;99.90
41592;DHT22;28026;48.562;14.440;2024-01-10T05:28:13;-9.70;99.90
41592;DHT22;28026;48.562;14.440;2024-01-10T05:30:44;-9.70;99.90
41592;DHT22;28026;48.562;14.440;2024-01-10T05:33:15;-9.60;99.90
41592;DHT22;28026;48.562;14.440;2024-01-10T05:35:46;-9.70;99.90
41592;DHT22;28026;48.562;14.440;2024-01-10T05:38:17;-9.70;99.90
41592;DHT22;28026;48.562;14.440;2024-01-10T05:40:48;-9.80;99.90
41592;DHT22;28026;48.562;14.440;2024-01-10T05:43:19;-9.70;99.90
41592;DHT22;28026;48.562;14.440;2024-01-10T05:45:50;-9.70;99.90
41592;DHT22;28026;48.562;14.440;2024-01-10T05:48:21;-9.70;99.90
41592;DHT22;28026;48.562;14.440;2024-01-10T05:50:52;-9.70;99.90
41592;DHT22;28026;48.562;14.440;2024-01-10T05:53:24;-9.80;99.90
41592;DHT22;28026;48.562;14.440;2024-01-10T05:55:55;-9.80;99.90
41592;DHT22;28026;48.562;14.440;2024-01-10T05:58:26;-9.90;99.90
41592;DHT22;28026;48.562;14.440;2024-01-10T06:00:57;-9.90;99.90
41592;DHT22;28026;48.562;14.440;2024-01-10T06:03:27;-9.80;99.90
41592;DHT22;28026;48.562;14.440;2024-01-10T06:05:58;-9.80;99.90
41592;DHT22;28026;48.562;14.440;2024-01-10T06:08:29;-9.80;99.90
41592;DHT22;28026;48.562;14.440;2024-01-10T06:11:03;-9.80;99.90
41592;DHT22;28026;48.562;14.440;2024-01-10T06:13:36;-9.80;99.90
41592;DHT22;28026;48.562;14.440;2024-01-10T06:16:07;-9.80;99.90
41592;DHT22;28026;48.562;14.440;2024-01-10T06:18:39;-9.80;99.90
41592;DHT22;28026;48.562;14.440;2024-01-10T06:21:10;-9.80;99.90
41592;DHT22;28026;48.562;14.440;2024-01-10T06:23:41;-9.90;99.90
41592;DHT22;28026;48.562;14.440;2024-01-10T06:26:12;-9.90;99.90
41592;DHT22;28026;48.562;14.440;2024-01-10T06:28:42;-9.90;99.90
41592;DHT22;28026;48.562;14.440;2024-01-10T06:31:13;-10.00;99.90
41592;DHT22;28026;48.562;14.440;2024-01-10T06:33:44;-9.90;99.90
41592;DHT22;28026;48.562;14.440;2024-01-10T06:36:15;-10.00;99.90
41592;DHT22;28026;48.562;14.440;2024-01-10T06:38:46;-9.90;99.90
41592;DHT22;28026;48.562;14.440;2024-01-10T06:41:17;-10.00;99.90
41592;DHT22;28026;48.562;14.440;2024-01-10T06:43:54;-9.90;99.90
41592;DHT22;28026;48.562;14.440;2024-01-10T06:46:25;-9.80;99.90
41592;DHT22;28026;48.562;14.440;2024-01-10T06:48:56;-9.90;99.90
41592;DHT22;28026;48.562;14.440;2024-01-10T06:51:27;-9.80;99.90
41592;DHT22;28026;48.562;14.440;2024-01-10T06:53:57;-9.80;99.90
41592;DHT22;28026;48.562;14.440;2024-01-10T06:56:34;-9.90;99.90
41592;DHT22;28026;48.562;14.440;2024-01-10T06:59:05;-9.80;99.90
41592;DHT22;28026;48.562;14.440;2024-01-10T07:01:36;-9.80;99.90
41592;DHT22;28026;48.562;14.440;2024-01-10T07:04:08;-9.90;99.90
41592;DHT22;28026;48.562;14.440;2024-01-10T07:06:39;-9.70;99.90
41592;DHT22;28026;48.562;14.440;2024-01-10T07:09:10;-9.10;99.90
41592;DHT22;28026;48.562;14.440;2024-01-10T07:11:41;-8.60;99.90
41592;DHT22;28026;48.562;14.440;2024-01-10T07:14:12;-8.20;99.90
41592;DHT22;28026;48.562;14.440;2024-01-10T07:16:43;-8.50;99.90
41592;DHT22;28026;48.562;14.440;2024-01-10T07:19:16;-8.60;99.90
41592;DHT22;28026;48.562;14.440;2024-01-10T07:21:47;-8.90;99.90
41592;DHT22;28026;48.562;14.440;2024-01-10T07:24:17;-8.80;99.90
41592;DHT22;28026;48.562;14.440;2024-01-10T07:26:48;-8.80;99.90
41592;DHT22;28026;48.562;14.440;2024-01-10T07:29:19;-8.60;99.90
41592;DHT22;28026;48.562;14.440;2024-01-10T07:31:50;-8.90;99.90
41592;DHT22;28026;48.562;14.440;2024-01-10T07:34:23;-8.50;99.90
41592;DHT22;28026;48.562;14.440;2024-01-10T07:36:53;-8.30;99.90
41592;DHT22;28026;48.562;14.440;2024-01-10T07:39:24;-8.00;99.90
41592;DHT22;28026;48.562;14.440;2024-01-10T07:41:55;-8.00;99.90
41592;DHT22;28026;48.562;14.440;2024-01-10T07:44:26;-7.90;99.90
41592;DHT22;28026;48.562;14.440;2024-01-10T07:46:57;-7.90;99.90
41592;DHT22;28026;48.562;14.440;2024-01-10T07:49:28;-7.50;99.90
41592;DHT22;28026;48.562;14.440;2024-01-10T07:52:00;-7.30;99.90
41592;DHT22;28026;48.562;14.440;2024-01-10T07:54:31;-7.00;99.90
41592;DHT22;28026;48.562;14.440;2024-01-10T07:57:02;-7.30;99.90
41592;DHT22;28026;48.562;14.440;2024-01-10T07:59:33;-7.20;99.90
41592;DHT22;28026;48.562;14.440;2024-01-10T08:02:05;-7.10;99.90
41592;DHT22;28026;48.562;14.440;2024-01-10T08:04:36;-6.30;99.90
41592;DHT22;28026;48.562;14.440;2024-01-10T08:07:07;-5.70;99.90
41592;DHT22;28026;48.562;14.440;2024-01-10T08:09:38;-5.80;99.90
41592;DHT22;28026;48.562;14.440;2024-01-10T08:12:09;-5.60;99.90
41592;DHT22;28026;48.562;14.440;2024-01-10T08:14:43;-5.70;99.90
41592;DHT22;28026;48.562;14.440;2024-01-10T08:17:16;-5.70;99.90
41592;DHT22;28026;48.562;14.440;2024-01-10T08:19:47;-5.80;99.90
41592;DHT22;28026;48.562;14.440;2024-01-10T08:22:18;-6.10;99.90
41592;DHT22;28026;48.562;14.440;2024-01-10T08:24:53;-6.40;99.90
41592;DHT22;28026;48.562;14.440;2024-01-10T08:27:25;-6.20;99.90
41592;DHT22;28026;48.562;14.440;2024-01-10T08:29:56;-5.80;99.90
41592;DHT22;28026;48.562;14.440;2024-01-10T08:32:27;-5.40;99.90
41592;DHT22;28026;48.562;14.440;2024-01-10T08:34:58;-4.80;99.90
41592;DHT22;28026;48.562;14.440;2024-01-10T08:37:29;-4.90;99.90
41592;DHT22;28026;48.562;14.440;2024-01-10T08:40:00;-4.40;99.90
41592;DHT22;28026;48.562;14.440;2024-01-10T08:42:37;-4.20;99.90
41592;DHT22;28026;48.562;14.440;2024-01-10T08:45:12;-3.80;99.90
41592;DHT22;28026;48.562;14.440;2024-01-10T08:47:43;-4.00;99.90
41592;DHT22;28026;48.562;14.440;2024-01-10T08:50:14;-4.00;99.90
41592;DHT22;28026;48.562;14.440;2024-01-10T08:52:45;-3.90;99.90
41592;DHT22;28026;48.562;14.440;2024-01-10T08:55:15;-3.90;99.90
41592;DHT22;28026;48.562;14.440;2024-01-10T08:57:46;-3.60;99.90
41592;DHT22;28026;48.562;14.440;2024-01-10T09:00:17;-3.20;99.90
41592;DHT22;28026;48.562;14.440;2024-01-10T09:02:49;-3.00;99.90
41592;DHT22;28026;48.562;14.440;2024-01-10T09:05:19;-2.50;99.90
41592;DHT22;28026;48.562;14.440;2024-01-10T09:07:52;-2.10;99.90
41592;DHT22;28026;48.562;14.440;2024-01-10T09:10:24;-1.90;99.90
41592;DHT22;28026;48.562;14.440;2024-01-10T09:12:58;-2.40;99.90
41592;DHT22;28026;48.562;14.440;2024-01-10T09:15:29;-2.00;99.90
41592;DHT22;28026;48.562;14.440;2024-01-10T09:18:00;-1.50;99.90
41592;DHT22;28026;48.562;14.440;2024-01-10T09:20:31;-1.60;99.90
41592;DHT22;28026;48.562;14.440;2024-01-10T09:23:02;-1.20;99.90
41592;DHT22;28026;48.562;14.440;2024-01-10T09:25:33;-1.10;99.90
41592;DHT22;28026;48.562;14.440;2024-01-10T09:28:04;-0.80;99.90
41592;DHT22;28026;48.562;14.440;2024-01-10T09:30:35;-1.10;99.90
41592;DHT22;28026;48.562;14.440;2024-01-10T09:33:06;-0.70;99.90
41592;DHT22;28026;48.562;14.440;2024-01-10T09:35:37;-0.60;99.90
41592;DHT22;28026;48.562;14.440;2024-01-10T09:38:08;0.20;99.90
41592;DHT22;28026;48.562;14.440;2024-01-10T09:40:40;-0.60;99.90
41592;DHT22;28026;48.562;14.440;2024-01-10T09:43:11;-0.60;99.90
41592;DHT22;28026;48.562;14.440;2024-01-10T09:45:44;-0.10;99.90
41592;DHT22;28026;48.562;14.440;2024-01-10T09:48:20;-0.20;99.90
41592;DHT22;28026;48.562;14.440;2024-01-10T09:50:51;-1.50;99.90
41592;DHT22;28026;48.562;14.440;2024-01-10T09:53:24;-1.80;99.90
41592;DHT22;28026;48.562;14.440;2024-01-10T09:56:04;-0.90;99.90
41592;DHT22;28026;48.562;14.440;2024-01-10T09:58:35;-0.20;99.90
41592;DHT22;28026;48.562;14.440;2024-01-10T10:01:10;-0.60;99.90
41592;DHT22;28026;48.562;14.440;2024-01-10T10:03:41;0.20;99.90
41592;DHT22;28026;48.562;14.440;2024-01-10T10:06:18;-0.20;99.90
41592;DHT22;28026;48.562;14.440;2024-01-10T10:08:49;0.50;99.90
41592;DHT22;28026;48.562;14.440;2024-01-10T10:11:20;1.30;99.90
41592;DHT22;28026;48.562;14.440;2024-01-10T10:13:51;1.60;99.90
41592;DHT22;28026;48.562;14.440;2024-01-10T10:16:24;1.00;99.90
41592;DHT22;28026;48.562;14.440;2024-01-10T10:18:56;0.70;99.90
41592;DHT22;28026;48.562;14.440;2024-01-10T10:21:29;-0.30;99.90
41592;DHT22;28026;48.562;14.440;2024-01-10T10:24:01;0.00;99.90
41592;DHT22;28026;48.562;14.440;2024-01-10T10:26:34;0.30;99.90
41592;DHT22;28026;48.562;14.440;2024-01-10T10:29:05;0.80;99.90
41592;DHT22;28026;48.562;14.440;2024-01-10T10:31:36;1.20;99.90
41592;DHT22;28026;48.562;14.440;2024-01-10T10:34:07;1.80;99.90
41592;DHT22;28026;48.562;14.440;2024-01-10T10:36:42;1.90;99.90
41592;DHT22;28026;48.562;14.440;2024-01-10T10:39:16;1.90;99.90
41592;DHT22;28026;48.562;14.440;2024-01-10T10:41:47;2.60;99.90
41592;DHT22;28026;48.562;14.440;2024-01-10T10:44:23;2.90;99.90
41592;DHT22;28026;48.562;14.440;2024-01-10T10:46:59;2.40;99.90
41592;DHT22;28026;48.562;14.440;2024-01-10T10:49:45;2.10;99.90
41592;DHT22;28026;48.562;14.440;2024-01-10T10:52:25;2.00;99.90
41592;DHT22;28026;48.562;14.440;2024-01-10T10:54:58;0.80;99.90
41592;DHT22;28026;48.562;14.440;2024-01-10T10:57:33;0.20;99.90
41592;DHT22;28026;48.562;14.440;2024-01-10T11:00:06;1.10;99.90
41592;DHT22;28026;48.562;14.440;2024-01-10T11:02:38;2.30;99.90
41592;DHT22;28026;48.562;14.440;2024-01-10T11:05:10;3.10;99.90
41592;DHT22;28026;48.562;14.440;2024-01-10T11:07:43;3.40;99.90
41592;DHT22;28026;48.562;14.440;2024-01-10T11:10:25;3.90;99.90
41592;DHT22;28026;48.562;14.440;2024-01-10T11:13:27;4.00;99.90
41592;DHT22;28026;48.562;14.440;2024-01-10T11:22:52;1.60;99.90
41592;DHT22;28026;48.562;14.440;2024-01-10T11:25:35;1.70;99.90
41592;DHT22;28026;48.562;14.440;2024-01-10T11:28:07;2.60;99.90
41592;DHT22;28026;48.562;14.440;2024-01-10T11:30:48;3.30;99.90
41592;DHT22;28026;48.562;14.440;2024-01-10T11:33:31;3.40;99.90
41592;DHT22;28026;48.562;14.440;2024-01-10T11:36:19;4.40;99.90
41592;DHT22;28026;48.562;14.440;2024-01-10T11:46:53;2.90;99.90
41592;DHT22;28026;48.562;14.440;2024-01-10T11:49:26;3.80;99.90
41592;DHT22;28026;48.562;14.440;2024-01-10T11:51:58;3.10;99.90
41592;DHT22;28026;48.562;14.440;2024-01-10T11:57:22;4.10;99.90
41592;DHT22;28026;48.562;14.440;2024-01-10T11:59:57;4.30;99.90
41592;DHT22;28026;48.562;14.440;2024-01-10T12:02:35;4.70;99.90
41592;DHT22;28026;48.562;14.440;2024-01-10T12:05:08;4.90;99.90
41592;DHT22;28026;48.562;14.440;2024-01-10T12:07:40;5.10;99.90
41592;DHT22;28026;48.562;14.440;2024-01-10T12:10:11;5.30;99.90
41592;DHT22;28026;48.562;14.440;2024-01-10T12:12:42;4.60;99.90
41592;DHT22;28026;48.562;14.440;2024-01-10T12:15:13;5.30;99.90
41592;DHT22;28026;48.562;14.440;2024-01-10T12:17:45;5.30;99.90
41592;DHT22;28026;48.562;14.440;2024-01-10T12:20:15;5.50;99.90
41592;DHT22;28026;48.562;14.440;2024-01-10T12:22:47;5.40;99.90
41592;DHT22;28026;48.562;14.440;2024-01-10T12:25:18;5.60;99.90
41592;DHT22;28026;48.562;14.440;2024-01-10T12:27:50;6.20;99.90
41592;DHT22;28026;48.562;14.440;2024-01-10T12:30:21;4.90;99.90
41592;DHT22;28026;48.562;14.440;2024-01-10T12:32:52;4.60;99.90
41592;DHT22;28026;48.562;14.440;2024-01-10T12:35:23;5.50;99.90
41592;DHT22;28026;48.562;14.440;2024-01-10T12:37:57;5.00;99.90
41592;DHT22;28026;48.562;14.440;2024-01-10T12:40:28;4.80;99.90
41592;DHT22;28026;48.562;14.440;2024-01-10T12:43:05;4.60;99.90
41592;DHT22;28026;48.562;14.440;2024-01-10T12:45:36;4.90;99.90
41592;DHT22;28026;48.562;14.440;2024-01-10T12:48:07;4.30;99.90
41592;DHT22;28026;48.562;14.440;2024-01-10T12:50:47;4.50;99.90
41592;DHT22;28026;48.562;14.440;2024-01-10T12:53:18;5.00;99.90
41592;DHT22;28026;48.562;14.440;2024-01-10T12:55:49;4.60;99.90
41592;DHT22;28026;48.562;14.440;2024-01-10T12:58:20;4.70;99.90
41592;DHT22;28026;48.562;14.440;2024-01-10T13:00:51;4.30;99.90
41592;DHT22;28026;48.562;14.440;2024-01-10T13:03:22;4.80;99.90
41592;DHT22;28026;48.562;14.440;2024-01-10T13:05:54;5.10;99.90
41592;DHT22;28026;48.562;14.440;2024-01-10T13:08:25;5.10;99.90
41592;DHT22;28026;48.562;14.440;2024-01-10T13:10:56;5.10;99.90
41592;DHT22;28026;48.562;14.440;2024-01-10T13:13:27;4.80;99.90
41592;DHT22;28026;48.562;14.440;2024-01-10T13:15:58;4.80;99.90
41592;DHT22;28026;48.562;14.440;2024-01-10T13:18:29;5.10;99.90
41592;DHT22;28026;48.562;14.440;2024-01-10T13:21:00;4.90;99.90
41592;DHT22;28026;48.562;14.440;2024-01-10T13:23:31;4.60;99.90
41592;DHT22;28026;48.562;14.440;2024-01-10T13:26:02;4.50;99.90
41592;DHT22;28026;48.562;14.440;2024-01-10T13:28:33;4.60;99.90
41592;DHT22;28026;48.562;14.440;2024-01-10T13:31:04;4.40;99.90
41592;DHT22;28026;48.562;14.440;2024-01-10T13:33:36;4.50;99.90
41592;DHT22;28026;48.562;14.440;2024-01-10T13:36:07;4.20;99.90
41592;DHT22;28026;48.562;14.440;2024-01-10T13:38:38;4.30;99.90
41592;DHT22;28026;48.562;14.440;2024-01-10T13:41:09;3.80;99.90
41592;DHT22;28026;48.562;14.440;2024-01-10T13:43:40;3.60;99.90
41592;DHT22;28026;48.562;14.440;2024-01-10T13:46:11;3.60;99.90
41592;DHT22;28026;48.562;14.440;2024-01-10T13:48:42;3.90;99.90
41592;DHT22;28026;48.562;14.440;2024-01-10T13:51:12;3.80;99.90
41592;DHT22;28026;48.562;14.440;2024-01-10T13:53:43;4.10;99.90
41592;DHT22;28026;48.562;14.440;2024-01-10T13:56:14;3.20;99.90
41592;DHT22;28026;48.562;14.440;2024-01-10T13:58:45;3.20;99.90
41592;DHT22;28026;48.562;14.440;2024-01-10T14:01:16;3.30;99.90
41592;DHT22;28026;48.562;14.440;2024-01-10T14:03:47;3.30;99.90
41592;DHT22;28026;48.562;14.440;2024-01-10T14:06:18;2.80;99.90
41592;DHT22;28026;48.562;14.440;2024-01-10T14:08:49;2.70;99.90
41592;DHT22;28026;48.562;14.440;2024-01-10T14:11:20;2.70;99.90
41592;DHT22;28026;48.562;14.440;2024-01-10T14:13:51;3.00;99.90
41592;DHT22;28026;48.562;14.440;2024-01-10T14:16:23;2.80;99.90
41592;DHT22;28026;48.562;14.440;2024-01-10T14:18:53;2.70;99.90
41592;DHT22;28026;48.562;14.440;2024-01-10T14:21:26;2.40;99.90
41592;DHT22;28026;48.562;14.440;2024-01-10T14:23:57;2.20;99.90
41592;DHT22;28026;48.562;14.440;2024-01-10T14:26:28;2.00;99.90
41592;DHT22;28026;48.562;14.440;2024-01-10T14:28:59;1.80;99.90
41592;DHT22;28026;48.562;14.440;2024-01-10T14:31:30;1.70;99.90
41592;DHT22;28026;48.562;14.440;2024-01-10T14:34:02;1.70;99.90
41592;DHT22;28026;48.562;14.440;2024-01-10T14:36:33;0.90;99.90
41592;DHT22;28026;48.562;14.440;2024-01-10T14:39:04;0.50;99.90
41592;DHT22;28026;48.562;14.440;2024-01-10T14:41:38;0.20;99.90
41592;DHT22;28026;48.562;14.440;2024-01-10T14:44:10;0.40;99.90
41592;DHT22;28026;48.562;14.440;2024-01-10T14:46:41;0.20;99.90
41592;DHT22;28026;48.562;14.440;2024-01-10T14:49:12;-0.10;99.90
41592;DHT22;28026;48.562;14.440;2024-01-10T14:51:43;0.00;99.90
41592;DHT22;28026;48.562;14.440;2024-01-10T14:54:14;0.00;99.90
41592;DHT22;28026;48.562;14.440;2024-01-10T14:56:45;-0.10;99.90
41592;DHT22;28026;48.562;14.440;2024-01-10T14:59:19;-0.40;99.90
41592;DHT22;28026;48.562;14.440;2024-01-10T15:01:51;-0.60;99.90
41592;DHT22;28026;48.562;14.440;2024-01-10T15:04:22;-1.00;99.90
41592;DHT22;28026;48.562;14.440;2024-01-10T15:06:53;-1.30;99.90
41592;DHT22;28026;48.562;14.440;2024-01-10T15:09:24;-1.30;99.90
41592;DHT22;28026;48.562;14.440;2024-01-10T15:11:54;-1.50;99.90
41592;DHT22;28026;48.562;14.440;2024-01-10T15:14:26;-1.70;99.90
41592;DHT22;28026;48.562;14.440;2024-01-10T15:16:57;-2.00;99.90
41592;DHT22;28026;48.562;14.440;2024-01-10T15:19:30;-2.50;99.90
41592;DHT22;28026;48.562;14.440;2024-01-10T15:22:02;-2.50;99.90
41592;DHT22;28026;48.562;14.440;2024-01-10T15:24:33;-2.70;99.90
41592;DHT22;28026;48.562;14.440;2024-01-10T15:27:04;-3.10;99.90
41592;DHT22;28026;48.562;14.440;2024-01-10T15:29:39;-3.40;99.90
41592;DHT22;28026;48.562;14.440;2024-01-10T15:32:10;-3.60;99.90
41592;DHT22;28026;48.562;14.440;2024-01-10T15:34:41;-3.60;99.90
41592;DHT22;28026;48.562;14.440;2024-01-10T15:37:14;-3.60;99.90
41592;DHT22;28026;48.562;14.440;2024-01-10T15:39:45;-3.70;99.90
41592;DHT22;28026;48.562;14.440;2024-01-10T15:42:16;-3.90;99.90
41592;DHT22;28026;48.562;14.440;2024-01-10T15:44:49;-3.90;99.90
41592;DHT22;28026;48.562;14.440;2024-01-10T15:47:20;-4.20;99.90
41592;DHT22;28026;48.562;14.440;2024-01-10T15:49:51;-4.50;99.90
41592;DHT22;28026;48.562;14.440;2024-01-10T15:52:21;-4.40;99.90
41592;DHT22;28026;48.562;14.440;2024-01-10T15:54:57;-4.40;99.90
41592;DHT22;28026;48.562;14.440;2024-01-10T15:57:28;-4.40;99.90
41592;DHT22;28026;48.562;14.440;2024-01-10T15:59:59;-4.40;99.90
41592;DHT22;28026;48.562;14.440;2024-01-10T16:02:30;-4.30;99.90
41592;DHT22;28026;48.562;14.440;2024-01-10T16:05:01;-4.30;99.90